sensor_id;sensor_type;location;lat;lon;timestamp;P1;durP1;ratioP1;P2;durP2;ratioP2
42420;SDS011;28063;48.140;11.588;2023-03-19T00:02:15;1.05;;;0.88;;
42420;SDS011;28063;48.140;11.588;2023-03-19T00:04:41;1.52;;;1.15;;
42420;SDS011;28063;48.140;11.588;2023-03-19T00:07:06;0.93;;;0.80;;
42420;SDS011;28063;48.140;11.588;2023-03-19T00:09:32;1.38;;;0.98;;
42420;SDS011;28063;48.140;11.588;2023-03-19T00:11:58;1.25;;;0.93;;
42420;SDS011;28063;48.140;11.588;2023-03-19T00:14:23;1.13;;;0.82;;
42420;SDS011;28063;48.140;11.588;2023-03-19T00:16:49;1.00;;;0.80;;
42420;SDS011;28063;48.140;11.588;2023-03-19T00:19:15;1.50;;;1.20;;
42420;SDS011;28063;48.140;11.588;2023-03-19T00:21:41;1.20;;;0.93;;
42420;SDS011;28063;48.140;11.588;2023-03-19T00:24:07;1.75;;;1.05;;
42420;SDS011;28063;48.140;11.588;2023-03-19T00:26:34;1.40;;;1.10;;
42420;SDS011;28063;48.140;11.588;2023-03-19T00:29:00;1.73;;;1.20;;
42420;SDS011;28063;48.140;11.588;2023-03-19T00:31:26;1.92;;;1.10;;
42420;SDS011;28063;48.140;11.588;2023-03-19T00:33:53;0.90;;;0.90;;
42420;SDS011;28063;48.140;11.588;2023-03-19T00:36:21;1.35;;;0.93;;
42420;SDS011;28063;48.140;11.588;2023-03-19T00:38:47;1.20;;;1.00;;
42420;SDS011;28063;48.140;11.588;2023-03-19T00:41:13;1.08;;;0.98;;
42420;SDS011;28063;48.140;11.588;2023-03-19T00:43:41;1.90;;;1.20;;
42420;SDS011;28063;48.140;11.588;2023-03-19T00:46:08;0.75;;;0.75;;
42420;SDS011;28063;48.140;11.588;2023-03-19T00:48:33;1.23;;;0.93;;
42420;SDS011;28063;48.140;11.588;2023-03-19T00:51:03;2.05;;;1.23;;
42420;SDS011;28063;48.140;11.588;2023-03-19T00:53:36;1.00;;;0.95;;
42420;SDS011;28063;48.140;11.588;2023-03-19T00:56:03;1.58;;;1.08;;
42420;SDS011;28063;48.140;11.588;2023-03-19T00:58:30;0.77;;;0.77;;
42420;SDS011;28063;48.140;11.588;2023-03-19T01:00:56;1.40;;;0.90;;
42420;SDS011;28063;48.140;11.588;2023-03-19T01:03:21;0.75;;;0.75;;
42420;SDS011;28063;48.140;11.588;2023-03-19T01:05:47;1.33;;;1.08;;
42420;SDS011;28063;48.140;11.588;2023-03-19T01:08:17;1.00;;;1.00;;
42420;SDS011;28063;48.140;11.588;2023-03-19T01:10:46;1.27;;;0.98;;
42420;SDS011;28063;48.140;11.588;2023-03-19T01:13:11;2.33;;;1.50;;
42420;SDS011;28063;48.140;11.588;2023-03-19T01:15:39;1.15;;;0.85;;
42420;SDS011;28063;48.140;11.588;2023-03-19T01:18:06;1.52;;;1.10;;
42420;SDS011;28063;48.140;11.588;2023-03-19T01:20:36;1.65;;;1.40;;
42420;SDS011;28063;48.140;11.588;2023-03-19T01:23:06;1.40;;;1.02;;
42420;SDS011;28063;48.140;11.588;2023-03-19T01:25:32;1.20;;;1.08;;
42420;SDS011;28063;48.140;11.588;2023-03-19T01:27:58;1.92;;;1.10;;
42420;SDS011;28063;48.140;11.588;2023-03-19T01:30:25;2.15;;;1.55;;
42420;SDS011;28063;48.140;11.588;2023-03-19T01:32:50;1.95;;;1.42;;
42420;SDS011;28063;48.140;11.588;2023-03-19T01:35:17;1.90;;;1.40;;
42420;SDS011;28063;48.140;11.588;2023-03-19T01:37:45;2.05;;;1.30;;
42420;SDS011;28063;48.140;11.588;2023-03-19T01:40:12;1.35;;;1.25;;
42420;SDS011;28063;48.140;11.588;2023-03-19T01:42:51;1.90;;;1.25;;
42420;SDS011;28063;48.140;11.588;2023-03-19T01:45:35;2.65;;;1.58;;
42420;SDS011;28063;48.140;11.588;2023-03-19T01:48:02;1.63;;;1.40;;
42420;SDS011;28063;48.140;11.588;2023-03-19T01:50:36;2.03;;;1.33;;
42420;SDS011;28063;48.140;11.588;2023-03-19T01:53:07;1.50;;;1.20;;
42420;SDS011;28063;48.140;11.588;2023-03-19T01:55:35;1.73;;;1.50;;
42420;SDS011;28063;48.140;11.588;2023-03-19T01:58:06;1.35;;;1.20;;
42420;SDS011;28063;48.140;11.588;2023-03-19T02:00:33;2.65;;;1.70;;
42420;SDS011;28063;48.140;11.588;2023-03-19T02:03:00;3.00;;;2.33;;
42420;SDS011;28063;48.140;11.588;2023-03-19T02:05:27;3.53;;;1.80;;
42420;SDS011;28063;48.140;11.588;2023-03-19T02:07:57;2.00;;;1.70;;
42420;SDS011;28063;48.140;11.588;2023-03-19T02:10:26;2.53;;;1.67;;
42420;SDS011;28063;48.140;11.588;2023-03-19T02:12:54;2.22;;;1.25;;
42420;SDS011;28063;48.140;11.588;2023-03-19T02:15:19;1.92;;;1.60;;
42420;SDS011;28063;48.140;11.588;2023-03-19T02:17:45;2.38;;;1.50;;
42420;SDS011;28063;48.140;11.588;2023-03-19T02:23:04;1.80;;;1.60;;
42420;SDS011;28063;48.140;11.588;2023-03-19T02:25:41;1.30;;;1.20;;
42420;SDS011;28063;48.140;11.588;2023-03-19T02:28:16;2.45;;;1.65;;
42420;SDS011;28063;48.140;11.588;2023-03-19T02:30:43;1.70;;;1.20;;
42420;SDS011;28063;48.140;11.588;2023-03-19T02:33:14;1.90;;;1.27;;
42420;SDS011;28063;48.140;11.588;2023-03-19T02:35:45;2.10;;;1.73;;
42420;SDS011;28063;48.140;11.588;2023-03-19T02:38:13;2.03;;;1.33;;
42420;SDS011;28063;48.140;11.588;2023-03-19T02:40:50;1.45;;;1.08;;
42420;SDS011;28063;48.140;11.588;2023-03-19T02:43:29;2.33;;;1.20;;
42420;SDS011;28063;48.140;11.588;2023-03-19T02:45:59;0.98;;;0.88;;
42420;SDS011;28063;48.140;11.588;2023-03-19T02:48:26;0.75;;;0.75;;
42420;SDS011;28063;48.140;11.588;2023-03-19T02:50:52;1.85;;;1.30;;
42420;SDS011;28063;48.140;11.588;2023-03-19T02:53:17;1.45;;;0.95;;
42420;SDS011;28063;48.140;11.588;2023-03-19T02:55:43;2.47;;;1.50;;
42420;SDS011;28063;48.140;11.588;2023-03-19T02:58:09;1.58;;;1.25;;
42420;SDS011;28063;48.140;11.588;2023-03-19T03:00:36;1.90;;;1.30;;
42420;SDS011;28063;48.140;11.588;2023-03-19T03:03:02;2.20;;;1.15;;
42420;SDS011;28063;48.140;11.588;2023-03-19T03:05:30;0.90;;;0.90;;
42420;SDS011;28063;48.140;11.588;2023-03-19T03:07:56;1.35;;;0.98;;
42420;SDS011;28063;48.140;11.588;2023-03-19T03:10:22;1.17;;;1.08;;
42420;SDS011;28063;48.140;11.588;2023-03-19T03:12:48;2.10;;;1.38;;
42420;SDS011;28063;48.140;11.588;2023-03-19T03:15:14;2.63;;;1.65;;
42420;SDS011;28063;48.140;11.588;2023-03-19T03:17:40;3.10;;;2.33;;
42420;SDS011;28063;48.140;11.588;2023-03-19T03:20:07;2.67;;;1.95;;
42420;SDS011;28063;48.140;11.588;2023-03-19T03:22:33;3.90;;;1.95;;
42420;SDS011;28063;48.140;11.588;2023-03-19T03:24:59;3.92;;;2.38;;
42420;SDS011;28063;48.140;11.588;2023-03-19T03:27:25;2.78;;;1.90;;
42420;SDS011;28063;48.140;11.588;2023-03-19T03:29:51;3.00;;;1.63;;
42420;SDS011;28063;48.140;11.588;2023-03-19T03:32:17;1.60;;;1.48;;
42420;SDS011;28063;48.140;11.588;2023-03-19T03:34:43;2.47;;;1.40;;
42420;SDS011;28063;48.140;11.588;2023-03-19T03:37:10;2.55;;;1.50;;
42420;SDS011;28063;48.140;11.588;2023-03-19T03:39:36;3.75;;;1.98;;
42420;SDS011;28063;48.140;11.588;2023-03-19T03:42:01;3.30;;;2.00;;
42420;SDS011;28063;48.140;11.588;2023-03-19T03:44:27;2.95;;;2.10;;
42420;SDS011;28063;48.140;11.588;2023-03-19T03:46:53;3.13;;;1.83;;
42420;SDS011;28063;48.140;11.588;2023-03-19T03:49:19;2.60;;;1.40;;
42420;SDS011;28063;48.140;11.588;2023-03-19T03:51:45;2.42;;;1.55;;
42420;SDS011;28063;48.140;11.588;2023-03-19T03:54:11;1.27;;;1.00;;
42420;SDS011;28063;48.140;11.588;2023-03-19T03:56:36;2.25;;;1.73;;
42420;SDS011;28063;48.140;11.588;2023-03-19T03:59:02;2.20;;;1.45;;
42420;SDS011;28063;48.140;11.588;2023-03-19T04:01:28;1.73;;;1.60;;
42420;SDS011;28063;48.140;11.588;2023-03-19T04:03:54;1.95;;;1.52;;
42420;SDS011;28063;48.140;11.588;2023-03-19T04:06:20;1.20;;;1.08;;
42420;SDS011;28063;48.140;11.588;2023-03-19T04:08:47;1.10;;;1.00;;
42420;SDS011;28063;48.140;11.588;2023-03-19T04:11:13;1.00;;;1.00;;
42420;SDS011;28063;48.140;11.588;2023-03-19T04:13:39;1.25;;;1.15;;
42420;SDS011;28063;48.140;11.588;2023-03-19T04:16:05;2.15;;;1.55;;
42420;SDS011;28063;48.140;11.588;2023-03-19T04:18:32;1.20;;;1.10;;
42420;SDS011;28063;48.140;11.588;2023-03-19T04:20:58;2.65;;;1.88;;
42420;SDS011;28063;48.140;11.588;2023-03-19T04:23:24;2.08;;;1.50;;
42420;SDS011;28063;48.140;11.588;2023-03-19T04:25:49;2.28;;;1.20;;
42420;SDS011;28063;48.140;11.588;2023-03-19T04:28:15;1.45;;;1.35;;
42420;SDS011;28063;48.140;11.588;2023-03-19T04:30:41;1.23;;;1.10;;
42420;SDS011;28063;48.140;11.588;2023-03-19T04:33:10;2.20;;;1.17;;
42420;SDS011;28063;48.140;11.588;2023-03-19T04:35:35;2.03;;;1.38;;
42420;SDS011;28063;48.140;11.588;2023-03-19T04:38:02;1.40;;;1.30;;
42420;SDS011;28063;48.140;11.588;2023-03-19T04:40:28;1.40;;;1.20;;
42420;SDS011;28063;48.140;11.588;2023-03-19T04:42:54;6.18;;;1.92;;
42420;SDS011;28063;48.140;11.588;2023-03-19T04:45:20;2.20;;;1.80;;
42420;SDS011;28063;48.140;11.588;2023-03-19T04:47:45;2.67;;;1.60;;
42420;SDS011;28063;48.140;11.588;2023-03-19T04:50:11;2.88;;;1.55;;
42420;SDS011;28063;48.140;11.588;2023-03-19T04:52:37;2.45;;;1.33;;
42420;SDS011;28063;48.140;11.588;2023-03-19T04:55:04;1.55;;;1.38;;
42420;SDS011;28063;48.140;11.588;2023-03-19T04:57:32;2.20;;;1.23;;
42420;SDS011;28063;48.140;11.588;2023-03-19T04:59:57;1.17;;;0.90;;
42420;SDS011;28063;48.140;11.588;2023-03-19T05:02:23;1.45;;;1.25;;
42420;SDS011;28063;48.140;11.588;2023-03-19T05:04:49;4.22;;;1.80;;
42420;SDS011;28063;48.140;11.588;2023-03-19T05:07:14;2.60;;;2.00;;
42420;SDS011;28063;48.140;11.588;2023-03-19T05:09:40;1.95;;;1.70;;
42420;SDS011;28063;48.140;11.588;2023-03-19T05:12:08;1.67;;;1.33;;
42420;SDS011;28063;48.140;11.588;2023-03-19T05:14:34;1.42;;;1.33;;
42420;SDS011;28063;48.140;11.588;2023-03-19T05:17:00;1.95;;;1.30;;
42420;SDS011;28063;48.140;11.588;2023-03-19T05:19:26;1.52;;;1.25;;
42420;SDS011;28063;48.140;11.588;2023-03-19T05:21:52;1.90;;;1.25;;
42420;SDS011;28063;48.140;11.588;2023-03-19T05:24:18;1.05;;;1.00;;
42420;SDS011;28063;48.140;11.588;2023-03-19T05:26:44;1.15;;;0.98;;
42420;SDS011;28063;48.140;11.588;2023-03-19T05:29:10;1.90;;;1.13;;
42420;SDS011;28063;48.140;11.588;2023-03-19T05:31:36;1.83;;;1.13;;
42420;SDS011;28063;48.140;11.588;2023-03-19T05:34:02;1.23;;;0.93;;
42420;SDS011;28063;48.140;11.588;2023-03-19T05:36:28;1.77;;;1.25;;
42420;SDS011;28063;48.140;11.588;2023-03-19T05:38:54;1.80;;;1.30;;
42420;SDS011;28063;48.140;11.588;2023-03-19T05:41:20;1.85;;;1.20;;
42420;SDS011;28063;48.140;11.588;2023-03-19T05:43:46;3.05;;;1.23;;
42420;SDS011;28063;48.140;11.588;2023-03-19T05:46:11;1.80;;;1.15;;
42420;SDS011;28063;48.140;11.588;2023-03-19T05:48:37;2.47;;;1.60;;
42420;SDS011;28063;48.140;11.588;2023-03-19T05:51:03;2.75;;;1.52;;
42420;SDS011;28063;48.140;11.588;2023-03-19T05:53:29;3.67;;;2.10;;
42420;SDS011;28063;48.140;11.588;2023-03-19T05:55:55;3.90;;;2.13;;
42420;SDS011;28063;48.140;11.588;2023-03-19T05:58:20;2.40;;;1.65;;
42420;SDS011;28063;48.140;11.588;2023-03-19T06:00:46;3.50;;;2.63;;
42420;SDS011;28063;48.140;11.588;2023-03-19T06:03:12;4.18;;;2.75;;
42420;SDS011;28063;48.140;11.588;2023-03-19T06:05:39;5.72;;;3.40;;
42420;SDS011;28063;48.140;11.588;2023-03-19T06:08:05;3.88;;;2.40;;
42420;SDS011;28063;48.140;11.588;2023-03-19T06:10:31;2.60;;;2.17;;
42420;SDS011;28063;48.140;11.588;2023-03-19T06:12:59;5.13;;;3.47;;
42420;SDS011;28063;48.140;11.588;2023-03-19T06:15:25;6.60;;;3.53;;
42420;SDS011;28063;48.140;11.588;2023-03-19T06:17:51;6.07;;;4.18;;
42420;SDS011;28063;48.140;11.588;2023-03-19T06:20:16;5.82;;;3.85;;
42420;SDS011;28063;48.140;11.588;2023-03-19T06:22:42;6.38;;;4.38;;
42420;SDS011;28063;48.140;11.588;2023-03-19T06:25:08;7.32;;;4.55;;
42420;SDS011;28063;48.140;11.588;2023-03-19T06:27:34;6.72;;;4.03;;
42420;SDS011;28063;48.140;11.588;2023-03-19T06:29:59;8.25;;;4.20;;
42420;SDS011;28063;48.140;11.588;2023-03-19T06:32:25;9.13;;;5.72;;
42420;SDS011;28063;48.140;11.588;2023-03-19T06:34:51;6.85;;;4.97;;
42420;SDS011;28063;48.140;11.588;2023-03-19T06:37:17;9.23;;;4.28;;
42420;SDS011;28063;48.140;11.588;2023-03-19T06:39:43;12.52;;;6.05;;
42420;SDS011;28063;48.140;11.588;2023-03-19T06:42:08;8.15;;;5.43;;
42420;SDS011;28063;48.140;11.588;2023-03-19T06:44:34;7.40;;;4.03;;
42420;SDS011;28063;48.140;11.588;2023-03-19T06:47:00;6.93;;;4.57;;
42420;SDS011;28063;48.140;11.588;2023-03-19T06:49:25;7.72;;;4.65;;
42420;SDS011;28063;48.140;11.588;2023-03-19T06:51:51;9.90;;;5.75;;
42420;SDS011;28063;48.140;11.588;2023-03-19T06:54:17;7.15;;;4.90;;
42420;SDS011;28063;48.140;11.588;2023-03-19T06:56:42;9.43;;;4.80;;
42420;SDS011;28063;48.140;11.588;2023-03-19T06:59:08;6.95;;;5.15;;
42420;SDS011;28063;48.140;11.588;2023-03-19T07:01:37;8.88;;;5.03;;
42420;SDS011;28063;48.140;11.588;2023-03-19T07:04:06;8.65;;;4.40;;
42420;SDS011;28063;48.140;11.588;2023-03-19T07:06:32;9.75;;;5.45;;
42420;SDS011;28063;48.140;11.588;2023-03-19T07:08:58;7.88;;;4.97;;
42420;SDS011;28063;48.140;11.588;2023-03-19T07:11:24;5.53;;;3.95;;
42420;SDS011;28063;48.140;11.588;2023-03-19T07:13:50;7.63;;;4.03;;
42420;SDS011;28063;48.140;11.588;2023-03-19T07:16:16;8.07;;;4.57;;
42420;SDS011;28063;48.140;11.588;2023-03-19T07:18:41;7.40;;;3.70;;
42420;SDS011;28063;48.140;11.588;2023-03-19T07:21:07;3.25;;;2.65;;
42420;SDS011;28063;48.140;11.588;2023-03-19T07:23:32;4.50;;;2.50;;
42420;SDS011;28063;48.140;11.588;2023-03-19T07:25:58;4.07;;;3.45;;
42420;SDS011;28063;48.140;11.588;2023-03-19T07:28:24;6.32;;;3.30;;
42420;SDS011;28063;48.140;11.588;2023-03-19T07:30:50;5.03;;;3.22;;
42420;SDS011;28063;48.140;11.588;2023-03-19T07:33:17;3.30;;;2.67;;
42420;SDS011;28063;48.140;11.588;2023-03-19T07:35:44;2.88;;;2.38;;
42420;SDS011;28063;48.140;11.588;2023-03-19T07:38:09;8.55;;;4.60;;
42420;SDS011;28063;48.140;11.588;2023-03-19T07:40:35;5.55;;;4.07;;
42420;SDS011;28063;48.140;11.588;2023-03-19T07:43:01;8.82;;;4.70;;
42420;SDS011;28063;48.140;11.588;2023-03-19T07:45:27;6.18;;;3.47;;
42420;SDS011;28063;48.140;11.588;2023-03-19T07:47:53;4.60;;;3.40;;
42420;SDS011;28063;48.140;11.588;2023-03-19T07:50:19;4.47;;;3.10;;
42420;SDS011;28063;48.140;11.588;2023-03-19T07:52:45;4.95;;;2.70;;
42420;SDS011;28063;48.140;11.588;2023-03-19T07:55:15;5.07;;;2.90;;
42420;SDS011;28063;48.140;11.588;2023-03-19T07:57:41;4.72;;;3.03;;
42420;SDS011;28063;48.140;11.588;2023-03-19T08:00:07;5.45;;;3.08;;
42420;SDS011;28063;48.140;11.588;2023-03-19T08:02:34;5.13;;;2.90;;
42420;SDS011;28063;48.140;11.588;2023-03-19T08:05:00;4.95;;;3.13;;
42420;SDS011;28063;48.140;11.588;2023-03-19T08:07:28;3.53;;;2.88;;
42420;SDS011;28063;48.140;11.588;2023-03-19T08:09:55;3.13;;;2.45;;
42420;SDS011;28063;48.140;11.588;2023-03-19T08:12:22;7.78;;;3.13;;
42420;SDS011;28063;48.140;11.588;2023-03-19T08:14:50;3.15;;;2.40;;
42420;SDS011;28063;48.140;11.588;2023-03-19T08:17:16;2.40;;;1.88;;
42420;SDS011;28063;48.140;11.588;2023-03-19T08:19:42;2.72;;;2.00;;
42420;SDS011;28063;48.140;11.588;2023-03-19T08:22:08;2.75;;;1.63;;
42420;SDS011;28063;48.140;11.588;2023-03-19T08:24:33;4.75;;;2.63;;
42420;SDS011;28063;48.140;11.588;2023-03-19T08:26:59;2.45;;;2.15;;
42420;SDS011;28063;48.140;11.588;2023-03-19T08:29:25;5.45;;;2.40;;
42420;SDS011;28063;48.140;11.588;2023-03-19T08:31:52;3.85;;;2.28;;
42420;SDS011;28063;48.140;11.588;2023-03-19T08:34:18;3.40;;;2.22;;
42420;SDS011;28063;48.140;11.588;2023-03-19T08:36:44;3.78;;;3.00;;
42420;SDS011;28063;48.140;11.588;2023-03-19T08:39:10;4.43;;;2.60;;
42420;SDS011;28063;48.140;11.588;2023-03-19T08:41:36;3.00;;;2.20;;
42420;SDS011;28063;48.140;11.588;2023-03-19T08:44:01;6.80;;;3.25;;
42420;SDS011;28063;48.140;11.588;2023-03-19T08:46:27;3.83;;;2.60;;
42420;SDS011;28063;48.140;11.588;2023-03-19T08:48:53;2.13;;;1.92;;
42420;SDS011;28063;48.140;11.588;2023-03-19T08:51:19;3.40;;;2.20;;
42420;SDS011;28063;48.140;11.588;2023-03-19T08:53:45;3.13;;;2.47;;
42420;SDS011;28063;48.140;11.588;2023-03-19T08:56:11;4.35;;;2.20;;
42420;SDS011;28063;48.140;11.588;2023-03-19T08:58:36;4.80;;;2.40;;
42420;SDS011;28063;48.140;11.588;2023-03-19T09:01:05;2.65;;;2.08;;
42420;SDS011;28063;48.140;11.588;2023-03-19T09:03:34;6.78;;;3.13;;
42420;SDS011;28063;48.140;11.588;2023-03-19T09:06:00;3.75;;;2.40;;
42420;SDS011;28063;48.140;11.588;2023-03-19T09:08:28;4.63;;;2.08;;
42420;SDS011;28063;48.140;11.588;2023-03-19T09:10:55;2.28;;;1.77;;
42420;SDS011;28063;48.140;11.588;2023-03-19T09:13:21;2.15;;;1.50;;
42420;SDS011;28063;48.140;11.588;2023-03-19T09:15:47;2.70;;;1.50;;
42420;SDS011;28063;48.140;11.588;2023-03-19T09:18:13;1.30;;;1.20;;
42420;SDS011;28063;48.140;11.588;2023-03-19T09:20:39;2.17;;;1.55;;
42420;SDS011;28063;48.140;11.588;2023-03-19T09:23:06;2.78;;;1.92;;
42420;SDS011;28063;48.140;11.588;2023-03-19T09:25:32;2.20;;;1.88;;
42420;SDS011;28063;48.140;11.588;2023-03-19T09:27:57;3.08;;;1.85;;
42420;SDS011;28063;48.140;11.588;2023-03-19T09:30:23;3.03;;;1.70;;
42420;SDS011;28063;48.140;11.588;2023-03-19T09:32:49;2.90;;;2.00;;
42420;SDS011;28063;48.140;11.588;2023-03-19T09:35:14;2.75;;;1.92;;
42420;SDS011;28063;48.140;11.588;2023-03-19T09:37:40;2.35;;;1.92;;
42420;SDS011;28063;48.140;11.588;2023-03-19T09:40:06;3.35;;;1.73;;
42420;SDS011;28063;48.140;11.588;2023-03-19T09:45:16;3.00;;;1.75;;
42420;SDS011;28063;48.140;11.588;2023-03-19T09:47:43;3.73;;;2.40;;
42420;SDS011;28063;48.140;11.588;2023-03-19T09:50:16;2.30;;;2.10;;
42420;SDS011;28063;48.140;11.588;2023-03-19T09:52:45;2.25;;;1.83;;
42420;SDS011;28063;48.140;11.588;2023-03-19T09:55:45;1.83;;;1.65;;
42420;SDS011;28063;48.140;11.588;2023-03-19T10:00:51;3.60;;;1.90;;
42420;SDS011;28063;48.140;11.588;2023-03-19T10:06:25;2.72;;;1.55;;
42420;SDS011;28063;48.140;11.588;2023-03-19T10:17:12;2.65;;;2.08;;
42420;SDS011;28063;48.140;11.588;2023-03-19T10:19:50;3.22;;;2.33;;
42420;SDS011;28063;48.140;11.588;2023-03-19T10:22:24;2.45;;;2.03;;
42420;SDS011;28063;48.140;11.588;2023-03-19T10:24:56;2.67;;;1.67;;
42420;SDS011;28063;48.140;11.588;2023-03-19T10:27:24;2.40;;;1.67;;
42420;SDS011;28063;48.140;11.588;2023-03-19T10:29:52;2.22;;;1.58;;
42420;SDS011;28063;48.140;11.588;2023-03-19T10:32:19;1.10;;;1.10;;
42420;SDS011;28063;48.140;11.588;2023-03-19T10:34:58;2.13;;;1.85;;
42420;SDS011;28063;48.140;11.588;2023-03-19T10:37:32;2.10;;;1.90;;
42420;SDS011;28063;48.140;11.588;2023-03-19T10:39:59;3.65;;;2.05;;
42420;SDS011;28063;48.140;11.588;2023-03-19T10:45:23;2.95;;;1.88;;
42420;SDS011;28063;48.140;11.588;2023-03-19T10:47:51;2.97;;;1.90;;
42420;SDS011;28063;48.140;11.588;2023-03-19T10:50:18;3.25;;;2.00;;
42420;SDS011;28063;48.140;11.588;2023-03-19T10:52:50;3.13;;;1.88;;
42420;SDS011;28063;48.140;11.588;2023-03-19T10:55:25;2.22;;;1.63;;
42420;SDS011;28063;48.140;11.588;2023-03-19T10:58:01;1.48;;;1.13;;
42420;SDS011;28063;48.140;11.588;2023-03-19T11:00:30;1.63;;;1.40;;
42420;SDS011;28063;48.140;11.588;2023-03-19T11:02:59;3.28;;;1.73;;
42420;SDS011;28063;48.140;11.588;2023-03-19T11:05:29;1.75;;;1.48;;
42420;SDS011;28063;48.140;11.588;2023-03-19T11:08:04;1.98;;;1.52;;
42420;SDS011;28063;48.140;11.588;2023-03-19T11:10:43;1.58;;;1.23;;
42420;SDS011;28063;48.140;11.588;2023-03-19T11:15:47;2.72;;;1.90;;
42420;SDS011;28063;48.140;11.588;2023-03-19T11:21:07;1.75;;;1.60;;
42420;SDS011;28063;48.140;11.588;2023-03-19T11:23:46;3.17;;;1.15;;
42420;SDS011;28063;48.140;11.588;2023-03-19T11:26:20;1.30;;;1.20;;
42420;SDS011;28063;48.140;11.588;2023-03-19T11:28:49;1.98;;;1.10;;
42420;SDS011;28063;48.140;11.588;2023-03-19T11:37:00;0.70;;;0.65;;
42420;SDS011;28063;48.140;11.588;2023-03-19T11:59:15;3.35;;;1.35;;
42420;SDS011;28063;48.140;11.588;2023-03-19T12:10:43;1.13;;;0.70;;
42420;SDS011;28063;48.140;11.588;2023-03-19T12:29:29;2.90;;;1.60;;
42420;SDS011;28063;48.140;11.588;2023-03-19T12:32:22;3.92;;;1.75;;
42420;SDS011;28063;48.140;11.588;2023-03-19T12:34:56;1.25;;;1.15;;
42420;SDS011;28063;48.140;11.588;2023-03-19T12:37:37;2.22;;;1.35;;
42420;SDS011;28063;48.140;11.588;2023-03-19T12:42:33;1.75;;;1.13;;
42420;SDS011;28063;48.140;11.588;2023-03-19T12:45:02;1.02;;;0.75;;
42420;SDS011;28063;48.140;11.588;2023-03-19T12:47:40;1.48;;;0.98;;
42420;SDS011;28063;48.140;11.588;2023-03-19T12:50:08;0.80;;;0.80;;
42420;SDS011;28063;48.140;11.588;2023-03-19T12:52:38;0.77;;;0.60;;
42420;SDS011;28063;48.140;11.588;2023-03-19T12:55:08;0.50;;;0.50;;
42420;SDS011;28063;48.140;11.588;2023-03-19T13:00:27;0.85;;;0.45;;
42420;SDS011;28063;48.140;11.588;2023-03-19T13:03:19;1.60;;;0.98;;
42420;SDS011;28063;48.140;11.588;2023-03-19T13:08:44;0.43;;;0.43;;
42420;SDS011;28063;48.140;11.588;2023-03-19T13:11:17;1.02;;;0.60;;
42420;SDS011;28063;48.140;11.588;2023-03-19T13:14:07;0.55;;;0.40;;
42420;SDS011;28063;48.140;11.588;2023-03-19T13:19:39;0.40;;;0.40;;
42420;SDS011;28063;48.140;11.588;2023-03-19T13:22:15;1.30;;;0.60;;
42420;SDS011;28063;48.140;11.588;2023-03-19T13:24:43;1.77;;;0.60;;
42420;SDS011;28063;48.140;11.588;2023-03-19T13:30:20;0.80;;;0.80;;
42420;SDS011;28063;48.140;11.588;2023-03-19T13:32:48;0.77;;;0.77;;
42420;SDS011;28063;48.140;11.588;2023-03-19T13:38:09;2.22;;;1.10;;
42420;SDS011;28063;48.140;11.588;2023-03-19T13:40:50;0.77;;;0.73;;
42420;SDS011;28063;48.140;11.588;2023-03-19T13:45:50;0.50;;;0.50;;
42420;SDS011;28063;48.140;11.588;2023-03-19T13:51:01;0.50;;;0.40;;
42420;SDS011;28063;48.140;11.588;2023-03-19T13:53:52;0.50;;;0.30;;
42420;SDS011;28063;48.140;11.588;2023-03-19T13:56:25;0.65;;;0.40;;
42420;SDS011;28063;48.140;11.588;2023-03-19T13:59:38;0.30;;;0.30;;
42420;SDS011;28063;48.140;11.588;2023-03-19T14:01:49;0.77;;;0.40;;
42420;SDS011;28063;48.140;11.588;2023-03-19T14:06:47;0.70;;;0.30;;
42420;SDS011;28063;48.140;11.588;2023-03-19T14:17:15;0.60;;;0.60;;
42420;SDS011;28063;48.140;11.588;2023-03-19T14:19:49;0.43;;;0.43;;
42420;SDS011;28063;48.140;11.588;2023-03-19T14:22:22;0.95;;;0.70;;
42420;SDS011;28063;48.140;11.588;2023-03-19T14:25:19;0.65;;;0.65;;
42420;SDS011;28063;48.140;11.588;2023-03-19T14:32:41;1.30;;;0.85;;
42420;SDS011;28063;48.140;11.588;2023-03-19T14:35:13;0.80;;;0.80;;
42420;SDS011;28063;48.140;11.588;2023-03-19T14:37:45;1.45;;;0.80;;
42420;SDS011;28063;48.140;11.588;2023-03-19T14:40:29;0.85;;;0.70;;
42420;SDS011;28063;48.140;11.588;2023-03-19T14:56:34;1.30;;;1.00;;
42420;SDS011;28063;48.140;11.588;2023-03-19T14:59:01;2.80;;;1.10;;
42420;SDS011;28063;48.140;11.588;2023-03-19T15:01:32;1.25;;;0.82;;
42420;SDS011;28063;48.140;11.588;2023-03-19T15:04:05;0.60;;;0.50;;
42420;SDS011;28063;48.140;11.588;2023-03-19T15:06:37;1.33;;;0.50;;
42420;SDS011;28063;48.140;11.588;2023-03-19T15:09:27;0.88;;;0.82;;
42420;SDS011;28063;48.140;11.588;2023-03-19T15:17:34;0.30;;;0.30;;
42420;SDS011;28063;48.140;11.588;2023-03-19T15:20:12;0.57;;;0.47;;
42420;SDS011;28063;48.140;11.588;2023-03-19T15:22:42;0.60;;;0.60;;
42420;SDS011;28063;48.140;11.588;2023-03-19T15:25:12;2.40;;;0.70;;
42420;SDS011;28063;48.140;11.588;2023-03-19T15:27:39;0.50;;;0.50;;
42420;SDS011;28063;48.140;11.588;2023-03-19T15:30:27;0.95;;;0.70;;
42420;SDS011;28063;48.140;11.588;2023-03-19T15:32:52;0.60;;;0.60;;
42420;SDS011;28063;48.140;11.588;2023-03-19T15:35:19;1.65;;;0.77;;
42420;SDS011;28063;48.140;11.588;2023-03-19T15:37:48;0.60;;;0.60;;
42420;SDS011;28063;48.140;11.588;2023-03-19T15:40:18;0.45;;;0.45;;
42420;SDS011;28063;48.140;11.588;2023-03-19T15:42:46;0.70;;;0.60;;
42420;SDS011;28063;48.140;11.588;2023-03-19T15:45:14;1.10;;;1.00;;
42420;SDS011;28063;48.140;11.588;2023-03-19T15:50:38;1.00;;;0.70;;
42420;SDS011;28063;48.140;11.588;2023-03-19T15:53:09;0.80;;;0.80;;
42420;SDS011;28063;48.140;11.588;2023-03-19T15:58:15;0.98;;;0.90;;
42420;SDS011;28063;48.140;11.588;2023-03-19T16:00:53;0.88;;;0.88;;
42420;SDS011;28063;48.140;11.588;2023-03-19T16:03:27;0.98;;;0.82;;
42420;SDS011;28063;48.140;11.588;2023-03-19T16:06:01;0.70;;;0.70;;
42420;SDS011;28063;48.140;11.588;2023-03-19T16:11:11;0.60;;;0.60;;
42420;SDS011;28063;48.140;11.588;2023-03-19T16:13:59;1.10;;;0.60;;
42420;SDS011;28063;48.140;11.588;2023-03-19T16:16:27;0.82;;;0.82;;
42420;SDS011;28063;48.140;11.588;2023-03-19T16:18:55;0.90;;;0.80;;
42420;SDS011;28063;48.140;11.588;2023-03-19T16:21:23;1.33;;;0.80;;
42420;SDS011;28063;48.140;11.588;2023-03-19T16:23:59;1.17;;;0.50;;
42420;SDS011;28063;48.140;11.588;2023-03-19T16:26:43;1.23;;;0.77;;
42420;SDS011;28063;48.140;11.588;2023-03-19T16:31:54;1.05;;;0.52;;
42420;SDS011;28063;48.140;11.588;2023-03-19T16:36:52;0.65;;;0.60;;
42420;SDS011;28063;48.140;11.588;2023-03-19T16:39:23;1.00;;;0.90;;
42420;SDS011;28063;48.140;11.588;2023-03-19T16:44:54;0.70;;;0.70;;
42420;SDS011;28063;48.140;11.588;2023-03-19T16:47:35;0.95;;;0.90;;
42420;SDS011;28063;48.140;11.588;2023-03-19T16:50:00;0.50;;;0.50;;
42420;SDS011;28063;48.140;11.588;2023-03-19T16:52:26;0.45;;;0.45;;
42420;SDS011;28063;48.140;11.588;2023-03-19T16:54:58;1.23;;;0.80;;
42420;SDS011;28063;48.140;11.588;2023-03-19T16:57:24;1.42;;;0.88;;
42420;SDS011;28063;48.140;11.588;2023-03-19T16:59:51;0.60;;;0.60;;
42420;SDS011;28063;48.140;11.588;2023-03-19T17:02:17;0.90;;;0.70;;
42420;SDS011;28063;48.140;11.588;2023-03-19T17:04:43;0.65;;;0.65;;
42420;SDS011;28063;48.140;11.588;2023-03-19T17:07:10;0.93;;;0.80;;
42420;SDS011;28063;48.140;11.588;2023-03-19T17:09:36;1.30;;;0.93;;
42420;SDS011;28063;48.140;11.588;2023-03-19T17:12:02;1.10;;;0.80;;
42420;SDS011;28063;48.140;11.588;2023-03-19T17:14:30;1.05;;;0.73;;